sensor_id;sensor_type;location;lat;lon;timestamp;P1;durP1;ratioP1;P2;durP2;ratioP2
30408;SDS011;17207;52.960;5.916;2024-02-16T00:00:00;5.53;;;2.78;;
30408;SDS011;17207;52.960;5.916;2024-02-16T00:02:26;6.18;;;3.30;;
30408;SDS011;17207;52.960;5.916;2024-02-16T00:04:52;4.95;;;2.65;;
30408;SDS011;17207;52.960;5.916;2024-02-16T00:07:18;5.70;;;3.03;;
30408;SDS011;17207;52.960;5.916;2024-02-16T00:09:44;4.07;;;2.63;;
30408;SDS011;17207;52.960;5.916;2024-02-16T00:12:10;4.97;;;2.78;;
30408;SDS011;17207;52.960;5.916;2024-02-16T00:14:36;4.45;;;2.40;;
30408;SDS011;17207;52.960;5.916;2024-02-16T00:17:02;5.35;;;2.75;;
30408;SDS011;17207;52.960;5.916;2024-02-16T00:19:28;5.63;;;2.70;;
30408;SDS011;17207;52.960;5.916;2024-02-16T00:21:54;4.70;;;2.70;;
30408;SDS011;17207;52.960;5.916;2024-02-16T00:24:20;6.32;;;3.10;;
30408;SDS011;17207;52.960;5.916;2024-02-16T00:26:46;7.95;;;2.75;;
30408;SDS011;17207;52.960;5.916;2024-02-16T00:29:13;4.32;;;2.67;;
30408;SDS011;17207;52.960;5.916;2024-02-16T00:31:39;7.35;;;3.00;;
30408;SDS011;17207;52.960;5.916;2024-02-16T00:34:04;4.85;;;2.90;;
30408;SDS011;17207;52.960;5.916;2024-02-16T00:36:30;4.25;;;2.88;;
30408;SDS011;17207;52.960;5.916;2024-02-16T00:38:59;7.07;;;3.03;;
30408;SDS011;17207;52.960;5.916;2024-02-16T00:41:25;5.32;;;2.95;;
30408;SDS011;17207;52.960;5.916;2024-02-16T00:43:51;3.20;;;2.28;;
30408;SDS011;17207;52.960;5.916;2024-02-16T00:46:17;6.05;;;2.90;;
30408;SDS011;17207;52.960;5.916;2024-02-16T00:48:43;7.13;;;3.08;;
30408;SDS011;17207;52.960;5.916;2024-02-16T00:53:37;5.28;;;2.83;;
30408;SDS011;17207;52.960;5.916;2024-02-16T00:56:03;6.30;;;3.10;;
30408;SDS011;17207;52.960;5.916;2024-02-16T00:58:29;5.07;;;2.97;;
30408;SDS011;17207;52.960;5.916;2024-02-16T01:00:55;3.78;;;2.60;;
30408;SDS011;17207;52.960;5.916;2024-02-16T01:03:21;5.65;;;2.80;;
30408;SDS011;17207;52.960;5.916;2024-02-16T01:05:47;5.00;;;2.45;;
30408;SDS011;17207;52.960;5.916;2024-02-16T01:08:13;4.55;;;2.80;;
30408;SDS011;17207;52.960;5.916;2024-02-16T01:10:39;3.83;;;2.20;;
30408;SDS011;17207;52.960;5.916;2024-02-16T01:13:05;3.67;;;2.38;;
30408;SDS011;17207;52.960;5.916;2024-02-16T01:15:31;5.40;;;2.65;;
30408;SDS011;17207;52.960;5.916;2024-02-16T01:17:57;4.40;;;2.25;;
30408;SDS011;17207;52.960;5.916;2024-02-16T01:20:25;5.10;;;2.60;;
30408;SDS011;17207;52.960;5.916;2024-02-16T01:22:51;4.25;;;2.53;;
30408;SDS011;17207;52.960;5.916;2024-02-16T01:25:17;3.85;;;2.13;;
30408;SDS011;17207;52.960;5.916;2024-02-16T01:27:43;4.03;;;2.30;;
30408;SDS011;17207;52.960;5.916;2024-02-16T01:30:09;5.05;;;2.60;;
30408;SDS011;17207;52.960;5.916;2024-02-16T01:32:35;5.03;;;2.63;;
30408;SDS011;17207;52.960;5.916;2024-02-16T01:35:01;5.70;;;2.83;;
30408;SDS011;17207;52.960;5.916;2024-02-16T01:37:27;4.53;;;2.17;;
30408;SDS011;17207;52.960;5.916;2024-02-16T01:39:53;5.35;;;2.50;;
30408;SDS011;17207;52.960;5.916;2024-02-16T01:42:19;4.82;;;2.67;;
30408;SDS011;17207;52.960;5.916;2024-02-16T01:44:45;3.90;;;2.10;;
30408;SDS011;17207;52.960;5.916;2024-02-16T01:47:11;4.25;;;2.22;;
30408;SDS011;17207;52.960;5.916;2024-02-16T01:49:37;3.53;;;2.13;;
30408;SDS011;17207;52.960;5.916;2024-02-16T01:52:04;5.18;;;2.45;;
30408;SDS011;17207;52.960;5.916;2024-02-16T01:54:30;4.88;;;3.00;;
30408;SDS011;17207;52.960;5.916;2024-02-16T01:56:56;3.30;;;2.00;;
30408;SDS011;17207;52.960;5.916;2024-02-16T01:59:22;6.35;;;2.75;;
30408;SDS011;17207;52.960;5.916;2024-02-16T02:01:48;3.80;;;2.05;;
30408;SDS011;17207;52.960;5.916;2024-02-16T02:04:14;2.90;;;2.30;;
30408;SDS011;17207;52.960;5.916;2024-02-16T02:06:40;3.65;;;2.30;;
30408;SDS011;17207;52.960;5.916;2024-02-16T02:09:06;5.28;;;2.90;;
30408;SDS011;17207;52.960;5.916;2024-02-16T02:11:34;3.33;;;1.80;;
30408;SDS011;17207;52.960;5.916;2024-02-16T02:14:00;4.60;;;2.20;;
30408;SDS011;17207;52.960;5.916;2024-02-16T02:16:26;3.58;;;2.10;;
30408;SDS011;17207;52.960;5.916;2024-02-16T02:18:52;4.35;;;2.70;;
30408;SDS011;17207;52.960;5.916;2024-02-16T02:21:18;3.58;;;2.15;;
30408;SDS011;17207;52.960;5.916;2024-02-16T02:23:44;3.45;;;1.90;;
30408;SDS011;17207;52.960;5.916;2024-02-16T02:26:10;3.75;;;2.13;;
30408;SDS011;17207;52.960;5.916;2024-02-16T02:28:36;3.75;;;2.25;;
30408;SDS011;17207;52.960;5.916;2024-02-16T02:31:02;2.58;;;1.70;;
30408;SDS011;17207;52.960;5.916;2024-02-16T02:33:28;3.03;;;2.03;;
30408;SDS011;17207;52.960;5.916;2024-02-16T02:35:54;4.95;;;2.50;;
30408;SDS011;17207;52.960;5.916;2024-02-16T02:38:20;4.40;;;2.30;;
30408;SDS011;17207;52.960;5.916;2024-02-16T02:40:46;3.67;;;2.13;;
30408;SDS011;17207;52.960;5.916;2024-02-16T02:43:12;3.25;;;1.92;;
30408;SDS011;17207;52.960;5.916;2024-02-16T02:45:39;2.95;;;1.92;;
30408;SDS011;17207;52.960;5.916;2024-02-16T02:48:05;2.50;;;1.92;;
30408;SDS011;17207;52.960;5.916;2024-02-16T02:50:31;3.60;;;2.08;;
30408;SDS011;17207;52.960;5.916;2024-02-16T02:52:57;3.90;;;1.98;;
30408;SDS011;17207;52.960;5.916;2024-02-16T02:55:23;5.55;;;2.05;;
30408;SDS011;17207;52.960;5.916;2024-02-16T02:57:49;2.42;;;1.70;;
30408;SDS011;17207;52.960;5.916;2024-02-16T03:00:15;3.28;;;1.90;;
30408;SDS011;17207;52.960;5.916;2024-02-16T03:02:41;3.33;;;2.20;;
30408;SDS011;17207;52.960;5.916;2024-02-16T03:05:08;3.03;;;2.05;;
30408;SDS011;17207;52.960;5.916;2024-02-16T03:07:35;3.28;;;2.13;;
30408;SDS011;17207;52.960;5.916;2024-02-16T03:10:01;2.38;;;1.80;;
30408;SDS011;17207;52.960;5.916;2024-02-16T03:12:28;2.95;;;2.15;;
30408;SDS011;17207;52.960;5.916;2024-02-16T03:14:54;3.42;;;1.88;;
30408;SDS011;17207;52.960;5.916;2024-02-16T03:17:20;2.60;;;2.08;;
30408;SDS011;17207;52.960;5.916;2024-02-16T03:19:46;2.63;;;2.00;;
30408;SDS011;17207;52.960;5.916;2024-02-16T03:22:12;4.30;;;2.55;;
30408;SDS011;17207;52.960;5.916;2024-02-16T03:24:38;3.15;;;2.10;;
30408;SDS011;17207;52.960;5.916;2024-02-16T03:27:04;3.90;;;2.35;;
30408;SDS011;17207;52.960;5.916;2024-02-16T03:29:30;3.55;;;2.17;;
30408;SDS011;17207;52.960;5.916;2024-02-16T03:31:56;3.55;;;2.22;;
30408;SDS011;17207;52.960;5.916;2024-02-16T03:34:23;2.92;;;2.20;;
30408;SDS011;17207;52.960;5.916;2024-02-16T03:36:49;3.25;;;1.98;;
30408;SDS011;17207;52.960;5.916;2024-02-16T03:39:15;3.25;;;2.08;;
30408;SDS011;17207;52.960;5.916;2024-02-16T03:41:45;3.00;;;2.00;;
30408;SDS011;17207;52.960;5.916;2024-02-16T03:44:14;2.40;;;2.00;;
30408;SDS011;17207;52.960;5.916;2024-02-16T03:46:41;3.05;;;1.92;;
30408;SDS011;17207;52.960;5.916;2024-02-16T03:49:07;3.03;;;1.90;;
30408;SDS011;17207;52.960;5.916;2024-02-16T03:51:33;3.85;;;2.30;;
30408;SDS011;17207;52.960;5.916;2024-02-16T03:54:00;2.90;;;1.95;;
30408;SDS011;17207;52.960;5.916;2024-02-16T03:58:53;2.78;;;1.70;;
30408;SDS011;17207;52.960;5.916;2024-02-16T04:01:19;3.33;;;1.80;;
30408;SDS011;17207;52.960;5.916;2024-02-16T04:03:45;3.58;;;2.05;;
30408;SDS011;17207;52.960;5.916;2024-02-16T04:06:10;2.10;;;1.67;;
30408;SDS011;17207;52.960;5.916;2024-02-16T04:08:36;2.47;;;1.58;;
30408;SDS011;17207;52.960;5.916;2024-02-16T04:11:03;2.70;;;1.70;;
30408;SDS011;17207;52.960;5.916;2024-02-16T04:13:29;2.78;;;1.73;;
30408;SDS011;17207;52.960;5.916;2024-02-16T04:15:55;2.28;;;1.80;;
30408;SDS011;17207;52.960;5.916;2024-02-16T04:18:21;2.00;;;1.70;;
30408;SDS011;17207;52.960;5.916;2024-02-16T04:20:46;2.10;;;1.80;;
30408;SDS011;17207;52.960;5.916;2024-02-16T04:23:12;2.08;;;1.60;;
30408;SDS011;17207;52.960;5.916;2024-02-16T04:25:38;2.30;;;1.88;;
30408;SDS011;17207;52.960;5.916;2024-02-16T04:28:04;2.67;;;1.60;;
30408;SDS011;17207;52.960;5.916;2024-02-16T04:30:30;3.30;;;2.22;;
30408;SDS011;17207;52.960;5.916;2024-02-16T04:32:57;2.78;;;1.70;;
30408;SDS011;17207;52.960;5.916;2024-02-16T04:35:23;2.47;;;1.90;;
30408;SDS011;17207;52.960;5.916;2024-02-16T04:37:48;2.22;;;1.60;;
30408;SDS011;17207;52.960;5.916;2024-02-16T04:40:14;1.95;;;1.40;;
30408;SDS011;17207;52.960;5.916;2024-02-16T04:42:40;1.80;;;1.63;;
30408;SDS011;17207;52.960;5.916;2024-02-16T04:45:07;2.55;;;1.65;;
30408;SDS011;17207;52.960;5.916;2024-02-16T04:47:33;2.72;;;1.60;;
30408;SDS011;17207;52.960;5.916;2024-02-16T04:49:59;2.60;;;1.65;;
30408;SDS011;17207;52.960;5.916;2024-02-16T04:52:25;2.05;;;1.33;;
30408;SDS011;17207;52.960;5.916;2024-02-16T04:54:51;2.83;;;1.88;;
30408;SDS011;17207;52.960;5.916;2024-02-16T04:57:17;2.13;;;1.48;;
30408;SDS011;17207;52.960;5.916;2024-02-16T04:59:43;2.35;;;1.67;;
30408;SDS011;17207;52.960;5.916;2024-02-16T05:02:09;2.67;;;1.80;;
30408;SDS011;17207;52.960;5.916;2024-02-16T05:04:35;2.00;;;1.38;;
30408;SDS011;17207;52.960;5.916;2024-02-16T05:07:01;2.63;;;1.63;;
30408;SDS011;17207;52.960;5.916;2024-02-16T05:09:27;1.58;;;1.35;;
30408;SDS011;17207;52.960;5.916;2024-02-16T05:11:53;2.08;;;1.52;;
30408;SDS011;17207;52.960;5.916;2024-02-16T05:14:19;2.63;;;1.50;;
30408;SDS011;17207;52.960;5.916;2024-02-16T05:16:45;2.25;;;1.55;;
30408;SDS011;17207;52.960;5.916;2024-02-16T05:19:11;1.73;;;1.50;;
30408;SDS011;17207;52.960;5.916;2024-02-16T05:21:37;2.53;;;1.35;;
30408;SDS011;17207;52.960;5.916;2024-02-16T05:24:03;2.53;;;1.52;;
30408;SDS011;17207;52.960;5.916;2024-02-16T05:26:29;2.13;;;1.38;;
30408;SDS011;17207;52.960;5.916;2024-02-16T05:28:55;2.30;;;1.60;;
30408;SDS011;17207;52.960;5.916;2024-02-16T05:31:21;1.83;;;1.45;;
30408;SDS011;17207;52.960;5.916;2024-02-16T05:33:47;1.38;;;1.25;;
30408;SDS011;17207;52.960;5.916;2024-02-16T05:38:45;1.83;;;1.42;;
30408;SDS011;17207;52.960;5.916;2024-02-16T05:41:11;1.42;;;1.27;;
30408;SDS011;17207;52.960;5.916;2024-02-16T05:43:37;1.20;;;1.05;;
30408;SDS011;17207;52.960;5.916;2024-02-16T05:46:03;1.50;;;1.33;;
30408;SDS011;17207;52.960;5.916;2024-02-16T05:48:33;2.30;;;1.52;;
30408;SDS011;17207;52.960;5.916;2024-02-16T05:51:02;2.00;;;1.60;;
30408;SDS011;17207;52.960;5.916;2024-02-16T05:53:28;1.33;;;1.23;;
30408;SDS011;17207;52.960;5.916;2024-02-16T05:55:54;1.92;;;1.63;;
30408;SDS011;17207;52.960;5.916;2024-02-16T05:58:20;1.95;;;1.27;;
30408;SDS011;17207;52.960;5.916;2024-02-16T06:00:48;1.73;;;1.30;;
30408;SDS011;17207;52.960;5.916;2024-02-16T06:03:14;1.23;;;1.10;;
30408;SDS011;17207;52.960;5.916;2024-02-16T06:05:40;1.67;;;1.30;;
30408;SDS011;17207;52.960;5.916;2024-02-16T06:08:06;2.55;;;1.40;;
30408;SDS011;17207;52.960;5.916;2024-02-16T06:10:32;1.30;;;1.17;;
30408;SDS011;17207;52.960;5.916;2024-02-16T06:12:59;1.80;;;1.40;;
30408;SDS011;17207;52.960;5.916;2024-02-16T06:15:25;2.17;;;1.40;;
30408;SDS011;17207;52.960;5.916;2024-02-16T06:17:51;2.72;;;1.30;;
30408;SDS011;17207;52.960;5.916;2024-02-16T06:20:17;1.27;;;1.00;;
30408;SDS011;17207;52.960;5.916;2024-02-16T06:22:44;1.40;;;1.20;;
30408;SDS011;17207;52.960;5.916;2024-02-16T06:25:10;1.95;;;1.50;;
30408;SDS011;17207;52.960;5.916;2024-02-16T06:27:36;1.35;;;1.13;;
30408;SDS011;17207;52.960;5.916;2024-02-16T06:30:02;1.20;;;1.10;;
30408;SDS011;17207;52.960;5.916;2024-02-16T06:32:32;1.42;;;1.20;;
30408;SDS011;17207;52.960;5.916;2024-02-16T06:34:58;1.40;;;1.30;;
30408;SDS011;17207;52.960;5.916;2024-02-16T06:37:24;1.17;;;1.08;;
30408;SDS011;17207;52.960;5.916;2024-02-16T06:39:50;1.33;;;1.17;;
30408;SDS011;17207;52.960;5.916;2024-02-16T06:42:17;1.52;;;1.35;;
30408;SDS011;17207;52.960;5.916;2024-02-16T06:44:42;1.30;;;1.20;;
30408;SDS011;17207;52.960;5.916;2024-02-16T06:47:08;1.77;;;1.33;;
30408;SDS011;17207;52.960;5.916;2024-02-16T06:49:34;2.03;;;1.30;;
30408;SDS011;17207;52.960;5.916;2024-02-16T06:52:00;1.58;;;1.40;;
30408;SDS011;17207;52.960;5.916;2024-02-16T06:54:26;1.33;;;1.20;;
30408;SDS011;17207;52.960;5.916;2024-02-16T06:56:53;1.58;;;1.00;;
30408;SDS011;17207;52.960;5.916;2024-02-16T06:59:19;1.67;;;1.25;;
30408;SDS011;17207;52.960;5.916;2024-02-16T07:01:45;1.10;;;1.00;;
30408;SDS011;17207;52.960;5.916;2024-02-16T07:04:11;1.27;;;1.17;;
30408;SDS011;17207;52.960;5.916;2024-02-16T07:06:37;1.27;;;1.10;;
30408;SDS011;17207;52.960;5.916;2024-02-16T07:09:03;1.20;;;1.10;;
30408;SDS011;17207;52.960;5.916;2024-02-16T07:11:29;1.65;;;1.23;;
30408;SDS011;17207;52.960;5.916;2024-02-16T07:13:55;1.75;;;1.20;;
30408;SDS011;17207;52.960;5.916;2024-02-16T07:16:21;1.40;;;1.10;;
30408;SDS011;17207;52.960;5.916;2024-02-16T07:18:47;1.75;;;1.10;;
30408;SDS011;17207;52.960;5.916;2024-02-16T07:21:13;1.20;;;1.00;;
30408;SDS011;17207;52.960;5.916;2024-02-16T07:23:39;1.38;;;1.20;;
30408;SDS011;17207;52.960;5.916;2024-02-16T07:26:05;2.15;;;1.10;;
30408;SDS011;17207;52.960;5.916;2024-02-16T07:28:32;1.15;;;1.05;;
30408;SDS011;17207;52.960;5.916;2024-02-16T07:30:58;1.75;;;1.30;;
30408;SDS011;17207;52.960;5.916;2024-02-16T07:33:24;1.20;;;1.10;;
30408;SDS011;17207;52.960;5.916;2024-02-16T07:35:53;1.42;;;1.10;;
30408;SDS011;17207;52.960;5.916;2024-02-16T07:38:19;1.45;;;1.10;;
30408;SDS011;17207;52.960;5.916;2024-02-16T07:40:46;1.63;;;1.45;;
30408;SDS011;17207;52.960;5.916;2024-02-16T07:43:13;1.60;;;1.40;;
30408;SDS011;17207;52.960;5.916;2024-02-16T07:45:39;1.25;;;1.00;;
30408;SDS011;17207;52.960;5.916;2024-02-16T07:48:05;1.63;;;1.20;;
30408;SDS011;17207;52.960;5.916;2024-02-16T07:50:32;1.73;;;1.10;;
30408;SDS011;17207;52.960;5.916;2024-02-16T07:52:58;1.88;;;1.20;;
30408;SDS011;17207;52.960;5.916;2024-02-16T07:55:24;1.10;;;0.90;;
30408;SDS011;17207;52.960;5.916;2024-02-16T07:57:51;1.10;;;1.00;;
30408;SDS011;17207;52.960;5.916;2024-02-16T08:00:17;1.52;;;1.15;;
30408;SDS011;17207;52.960;5.916;2024-02-16T08:02:43;1.10;;;1.00;;
30408;SDS011;17207;52.960;5.916;2024-02-16T08:05:12;1.85;;;1.20;;
30408;SDS011;17207;52.960;5.916;2024-02-16T08:07:39;1.00;;;0.90;;
30408;SDS011;17207;52.960;5.916;2024-02-16T08:10:08;1.25;;;1.00;;
30408;SDS011;17207;52.960;5.916;2024-02-16T08:12:36;1.70;;;1.10;;
30408;SDS011;17207;52.960;5.916;2024-02-16T08:15:03;1.33;;;1.00;;
30408;SDS011;17207;52.960;5.916;2024-02-16T08:17:32;1.25;;;1.00;;
30408;SDS011;17207;52.960;5.916;2024-02-16T08:19:58;1.05;;;0.95;;
30408;SDS011;17207;52.960;5.916;2024-02-16T08:22:24;1.60;;;1.20;;
30408;SDS011;17207;52.960;5.916;2024-02-16T08:24:50;1.45;;;1.33;;
30408;SDS011;17207;52.960;5.916;2024-02-16T08:27:17;1.33;;;1.10;;
30408;SDS011;17207;52.960;5.916;2024-02-16T08:29:43;1.20;;;1.10;;
30408;SDS011;17207;52.960;5.916;2024-02-16T08:32:09;1.10;;;1.00;;
30408;SDS011;17207;52.960;5.916;2024-02-16T08:34:35;1.23;;;1.05;;
30408;SDS011;17207;52.960;5.916;2024-02-16T08:37:05;2.15;;;1.38;;
30408;SDS011;17207;52.960;5.916;2024-02-16T08:39:31;1.40;;;1.20;;
30408;SDS011;17207;52.960;5.916;2024-02-16T08:41:59;1.65;;;1.30;;
30408;SDS011;17207;52.960;5.916;2024-02-16T08:44:25;1.13;;;1.02;;
30408;SDS011;17207;52.960;5.916;2024-02-16T08:46:51;1.40;;;1.10;;
30408;SDS011;17207;52.960;5.916;2024-02-16T08:49:18;1.47;;;1.30;;
30408;SDS011;17207;52.960;5.916;2024-02-16T08:51:44;1.67;;;1.30;;
30408;SDS011;17207;52.960;5.916;2024-02-16T08:54:10;1.33;;;1.23;;
30408;SDS011;17207;52.960;5.916;2024-02-16T08:56:36;1.33;;;1.15;;
30408;SDS011;17207;52.960;5.916;2024-02-16T08:59:04;1.63;;;1.25;;
30408;SDS011;17207;52.960;5.916;2024-02-16T09:01:31;1.58;;;1.10;;
30408;SDS011;17207;52.960;5.916;2024-02-16T09:03:57;2.17;;;1.20;;
30408;SDS011;17207;52.960;5.916;2024-02-16T09:06:23;1.40;;;1.30;;
30408;SDS011;17207;52.960;5.916;2024-02-16T09:08:49;1.90;;;1.58;;
30408;SDS011;17207;52.960;5.916;2024-02-16T09:11:15;3.55;;;1.58;;
30408;SDS011;17207;52.960;5.916;2024-02-16T09:13:42;2.90;;;1.60;;
30408;SDS011;17207;52.960;5.916;2024-02-16T09:16:08;1.60;;;1.42;;
30408;SDS011;17207;52.960;5.916;2024-02-16T09:18:34;1.45;;;1.35;;
30408;SDS011;17207;52.960;5.916;2024-02-16T09:21:02;1.60;;;1.48;;
30408;SDS011;17207;52.960;5.916;2024-02-16T09:23:28;2.38;;;1.70;;
30408;SDS011;17207;52.960;5.916;2024-02-16T09:25:54;2.30;;;1.63;;
30408;SDS011;17207;52.960;5.916;2024-02-16T09:28:21;1.40;;;1.30;;
30408;SDS011;17207;52.960;5.916;2024-02-16T09:30:47;2.28;;;1.30;;
30408;SDS011;17207;52.960;5.916;2024-02-16T09:33:13;2.15;;;1.23;;
30408;SDS011;17207;52.960;5.916;2024-02-16T09:35:39;2.10;;;1.17;;
30408;SDS011;17207;52.960;5.916;2024-02-16T09:38:05;1.83;;;1.63;;
30408;SDS011;17207;52.960;5.916;2024-02-16T09:40:31;2.33;;;1.50;;
30408;SDS011;17207;52.960;5.916;2024-02-16T09:42:58;2.10;;;1.50;;
30408;SDS011;17207;52.960;5.916;2024-02-16T09:45:24;2.15;;;1.40;;
30408;SDS011;17207;52.960;5.916;2024-02-16T09:47:51;1.55;;;1.33;;
30408;SDS011;17207;52.960;5.916;2024-02-16T09:50:17;2.17;;;1.73;;
30408;SDS011;17207;52.960;5.916;2024-02-16T09:52:47;1.77;;;1.30;;
30408;SDS011;17207;52.960;5.916;2024-02-16T09:55:14;2.00;;;1.60;;
30408;SDS011;17207;52.960;5.916;2024-02-16T09:57:40;3.70;;;1.70;;
30408;SDS011;17207;52.960;5.916;2024-02-16T10:00:08;2.13;;;1.73;;
30408;SDS011;17207;52.960;5.916;2024-02-16T10:02:44;2.35;;;1.50;;
30408;SDS011;17207;52.960;5.916;2024-02-16T10:05:13;3.30;;;1.92;;
30408;SDS011;17207;52.960;5.916;2024-02-16T10:07:40;1.73;;;1.58;;
30408;SDS011;17207;52.960;5.916;2024-02-16T10:10:06;1.67;;;1.58;;
30408;SDS011;17207;52.960;5.916;2024-02-16T10:12:32;2.80;;;1.83;;
30408;SDS011;17207;52.960;5.916;2024-02-16T10:14:58;2.08;;;1.60;;
30408;SDS011;17207;52.960;5.916;2024-02-16T10:17:25;2.30;;;1.60;;
30408;SDS011;17207;52.960;5.916;2024-02-16T10:19:55;2.17;;;1.80;;
30408;SDS011;17207;52.960;5.916;2024-02-16T10:22:21;2.72;;;1.73;;
30408;SDS011;17207;52.960;5.916;2024-02-16T10:24:48;3.28;;;2.03;;
30408;SDS011;17207;52.960;5.916;2024-02-16T10:27:18;3.03;;;1.88;;
30408;SDS011;17207;52.960;5.916;2024-02-16T10:29:46;2.85;;;1.92;;
30408;SDS011;17207;52.960;5.916;2024-02-16T10:32:15;2.00;;;1.77;;
30408;SDS011;17207;52.960;5.916;2024-02-16T10:34:41;2.45;;;1.92;;
30408;SDS011;17207;52.960;5.916;2024-02-16T10:37:08;2.15;;;1.70;;
30408;SDS011;17207;52.960;5.916;2024-02-16T10:39:35;2.10;;;1.77;;
30408;SDS011;17207;52.960;5.916;2024-02-16T10:42:03;3.25;;;2.03;;
30408;SDS011;17207;52.960;5.916;2024-02-16T10:44:31;2.22;;;1.77;;
30408;SDS011;17207;52.960;5.916;2024-02-16T10:46:57;2.05;;;1.73;;
30408;SDS011;17207;52.960;5.916;2024-02-16T10:49:23;2.28;;;1.80;;
30408;SDS011;17207;52.960;5.916;2024-02-16T10:51:53;2.47;;;1.80;;
30408;SDS011;17207;52.960;5.916;2024-02-16T10:54:22;2.83;;;2.08;;
30408;SDS011;17207;52.960;5.916;2024-02-16T10:56:49;2.53;;;1.70;;
30408;SDS011;17207;52.960;5.916;2024-02-16T10:59:17;3.53;;;2.20;;
30408;SDS011;17207;52.960;5.916;2024-02-16T11:01:43;3.60;;;2.25;;
30408;SDS011;17207;52.960;5.916;2024-02-16T11:04:16;2.95;;;2.20;;
30408;SDS011;17207;52.960;5.916;2024-02-16T11:06:52;4.22;;;2.50;;
30408;SDS011;17207;52.960;5.916;2024-02-16T11:09:29;4.38;;;2.30;;
30408;SDS011;17207;52.960;5.916;2024-02-16T11:11:58;4.00;;;2.85;;
30408;SDS011;17207;52.960;5.916;2024-02-16T11:14:24;2.75;;;2.30;;
30408;SDS011;17207;52.960;5.916;2024-02-16T11:16:59;2.08;;;1.80;;
30408;SDS011;17207;52.960;5.916;2024-02-16T11:19:25;4.13;;;2.47;;
30408;SDS011;17207;52.960;5.916;2024-02-16T11:21:58;3.17;;;2.15;;
30408;SDS011;17207;52.960;5.916;2024-02-16T11:24:31;3.63;;;2.28;;
30408;SDS011;17207;52.960;5.916;2024-02-16T11:27:00;6.05;;;2.72;;
30408;SDS011;17207;52.960;5.916;2024-02-16T11:29:26;4.80;;;2.35;;
30408;SDS011;17207;52.960;5.916;2024-02-16T11:34:23;4.50;;;2.55;;
30408;SDS011;17207;52.960;5.916;2024-02-16T11:36:54;4.28;;;2.47;;
30408;SDS011;17207;52.960;5.916;2024-02-16T11:39:20;6.50;;;2.30;;
30408;SDS011;17207;52.960;5.916;2024-02-16T11:42:07;4.00;;;2.38;;
30408;SDS011;17207;52.960;5.916;2024-02-16T11:44:36;5.13;;;2.08;;
30408;SDS011;17207;52.960;5.916;2024-02-16T11:47:05;4.32;;;2.30;;
30408;SDS011;17207;52.960;5.916;2024-02-16T11:49:32;5.80;;;2.60;;
30408;SDS011;17207;52.960;5.916;2024-02-16T11:52:01;4.63;;;2.30;;
30408;SDS011;17207;52.960;5.916;2024-02-16T11:54:29;3.25;;;2.30;;
30408;SDS011;17207;52.960;5.916;2024-02-16T11:56:56;4.70;;;2.45;;
30408;SDS011;17207;52.960;5.916;2024-02-16T11:59:22;3.42;;;1.98;;
30408;SDS011;17207;52.960;5.916;2024-02-16T12:01:55;3.47;;;2.13;;
30408;SDS011;17207;52.960;5.916;2024-02-16T12:04:25;3.78;;;2.28;;
30408;SDS011;17207;52.960;5.916;2024-02-16T12:09:20;2.60;;;2.10;;
30408;SDS011;17207;52.960;5.916;2024-02-16T12:11:47;3.08;;;1.95;;
30408;SDS011;17207;52.960;5.916;2024-02-16T12:14:14;2.80;;;2.05;;
30408;SDS011;17207;52.960;5.916;2024-02-16T12:16:40;2.13;;;1.92;;
30408;SDS011;17207;52.960;5.916;2024-02-16T12:19:06;2.15;;;1.77;;
30408;SDS011;17207;52.960;5.916;2024-02-16T12:21:33;2.50;;;1.80;;
30408;SDS011;17207;52.960;5.916;2024-02-16T12:24:00;2.72;;;1.92;;
30408;SDS011;17207;52.960;5.916;2024-02-16T12:26:26;2.10;;;1.85;;
30408;SDS011;17207;52.960;5.916;2024-02-16T12:28:52;2.75;;;1.80;;
30408;SDS011;17207;52.960;5.916;2024-02-16T12:31:19;3.88;;;2.40;;
30408;SDS011;17207;52.960;5.916;2024-02-16T12:33:45;2.72;;;1.77;;
30408;SDS011;17207;52.960;5.916;2024-02-16T12:36:11;3.65;;;2.00;;
30408;SDS011;17207;52.960;5.916;2024-02-16T12:38:37;2.38;;;1.75;;
30408;SDS011;17207;52.960;5.916;2024-02-16T12:41:03;3.33;;;2.17;;
30408;SDS011;17207;52.960;5.916;2024-02-16T12:43:29;2.95;;;1.92;;
30408;SDS011;17207;52.960;5.916;2024-02-16T12:45:55;2.63;;;1.77;;
30408;SDS011;17207;52.960;5.916;2024-02-16T12:48:22;2.38;;;1.80;;
30408;SDS011;17207;52.960;5.916;2024-02-16T12:50:48;3.40;;;1.70;;
30408;SDS011;17207;52.960;5.916;2024-02-16T12:53:16;2.92;;;1.85;;
30408;SDS011;17207;52.960;5.916;2024-02-16T12:55:42;2.80;;;1.90;;
30408;SDS011;17207;52.960;5.916;2024-02-16T12:58:09;2.00;;;1.63;;
30408;SDS011;17207;52.960;5.916;2024-02-16T13:00:35;2.97;;;1.52;;
30408;SDS011;17207;52.960;5.916;2024-02-16T13:03:01;2.13;;;1.73;;
30408;SDS011;17207;52.960;5.916;2024-02-16T13:05:27;2.13;;;1.70;;
30408;SDS011;17207;52.960;5.916;2024-02-16T13:07:55;1.92;;;1.58;;
30408;SDS011;17207;52.960;5.916;2024-02-16T13:10:21;2.00;;;1.63;;
30408;SDS011;17207;52.960;5.916;2024-02-16T13:12:47;2.88;;;1.60;;
30408;SDS011;17207;52.960;5.916;2024-02-16T13:15:13;2.60;;;1.60;;
30408;SDS011;17207;52.960;5.916;2024-02-16T13:17:39;5.88;;;1.83;;
30408;SDS011;17207;52.960;5.916;2024-02-16T13:20:05;3.00;;;1.63;;
30408;SDS011;17207;52.960;5.916;2024-02-16T13:22:35;2.80;;;1.60;;
30408;SDS011;17207;52.960;5.916;2024-02-16T13:25:03;2.25;;;1.45;;
30408;SDS011;17207;52.960;5.916;2024-02-16T13:27:29;2.30;;;1.40;;
30408;SDS011;17207;52.960;5.916;2024-02-16T13:29:55;3.60;;;1.60;;
30408;SDS011;17207;52.960;5.916;2024-02-16T13:32:21;2.25;;;1.77;;
30408;SDS011;17207;52.960;5.916;2024-02-16T13:34:47;1.88;;;1.40;;
30408;SDS011;17207;52.960;5.916;2024-02-16T13:37:13;4.05;;;1.75;;
30408;SDS011;17207;52.960;5.916;2024-02-16T13:39:39;2.78;;;1.40;;
30408;SDS011;17207;52.960;5.916;2024-02-16T13:42:05;1.60;;;1.50;;
30408;SDS011;17207;52.960;5.916;2024-02-16T13:44:31;4.78;;;1.92;;
30408;SDS011;17207;52.960;5.916;2024-02-16T13:46:57;4.45;;;1.75;;
30408;SDS011;17207;52.960;5.916;2024-02-16T13:49:24;4.28;;;1.45;;
30408;SDS011;17207;52.960;5.916;2024-02-16T13:51:50;4.53;;;2.08;;
30408;SDS011;17207;52.960;5.916;2024-02-16T13:54:16;2.70;;;1.70;;
30408;SDS011;17207;52.960;5.916;2024-02-16T13:56:42;2.33;;;1.60;;
30408;SDS011;17207;52.960;5.916;2024-02-16T13:59:09;3.58;;;1.58;;
30408;SDS011;17207;52.960;5.916;2024-02-16T14:01:35;3.00;;;1.48;;
30408;SDS011;17207;52.960;5.916;2024-02-16T14:04:02;2.23;;;1.27;;
30408;SDS011;17207;52.960;5.916;2024-02-16T14:06:28;1.83;;;1.38;;
30408;SDS011;17207;52.960;5.916;2024-02-16T14:08:56;1.58;;;1.15;;
30408;SDS011;17207;52.960;5.916;2024-02-16T14:11:22;2.10;;;1.40;;
30408;SDS011;17207;52.960;5.916;2024-02-16T14:13:49;2.22;;;1.52;;
30408;SDS011;17207;52.960;5.916;2024-02-16T14:16:15;2.75;;;1.45;;
30408;SDS011;17207;52.960;5.916;2024-02-16T14:18:41;2.75;;;1.70;;
30408;SDS011;17207;52.960;5.916;2024-02-16T14:21:08;3.05;;;1.50;;
30408;SDS011;17207;52.960;5.916;2024-02-16T14:23:34;2.17;;;1.58;;
30408;SDS011;17207;52.960;5.916;2024-02-16T14:26:00;2.17;;;1.63;;
30408;SDS011;17207;52.960;5.916;2024-02-16T14:28:26;2.53;;;1.40;;
30408;SDS011;17207;52.960;5.916;2024-02-16T14:30:52;2.42;;;1.85;;
30408;SDS011;17207;52.960;5.916;2024-02-16T14:33:18;2.17;;;1.70;;
30408;SDS011;17207;52.960;5.916;2024-02-16T14:35:45;3.05;;;1.65;;
30408;SDS011;17207;52.960;5.916;2024-02-16T14:38:12;3.45;;;1.45;;
30408;SDS011;17207;52.960;5.916;2024-02-16T14:40:41;3.58;;;1.88;;
30408;SDS011;17207;52.960;5.916;2024-02-16T14:43:07;5.35;;;2.15;;
30408;SDS011;17207;52.960;5.916;2024-02-16T14:45:33;5.95;;;2.88;;
30408;SDS011;17207;52.960;5.916;2024-02-16T14:48:03;8.60;;;2.83;;
30408;SDS011;17207;52.960;5.916;2024-02-16T14:50:29;9.32;;;3.30;;
30408;SDS011;17207;52.960;5.916;2024-02-16T14:52:55;8.35;;;3.10;;
30408;SDS011;17207;52.960;5.916;2024-02-16T14:55:21;9.77;;;3.83;;